createdAt,value
2017-11-18T00:00:33.298Z,61.90
2017-11-18T00:03:00.771Z,62.00
2017-11-18T00:05:28.238Z,62.20
2017-11-18T00:07:55.700Z,62.10
2017-11-18T00:10:23.219Z,62.10
2017-11-18T00:15:26.014Z,62.20
2017-11-18T00:17:53.475Z,62.10
2017-11-18T00:20:20.938Z,62.10
2017-11-18T00:22:48.386Z,62.20
2017-11-18T00:25:15.851Z,62.20
2017-11-18T00:27:43.304Z,62.20
2017-11-18T00:30:10.758Z,62.20
2017-11-18T00:32:38.219Z,62.30
2017-11-18T00:35:05.676Z,62.30
2017-11-18T00:37:33.132Z,62.30
2017-11-18T00:40:01.379Z,62.50
2017-11-18T00:42:28.826Z,62.50
2017-11-18T00:44:56.275Z,62.50
2017-11-18T00:47:24.499Z,62.40
2017-11-18T00:49:51.971Z,62.40
2017-11-18T00:52:19.422Z,62.40
2017-11-18T00:54:46.883Z,62.60
2017-11-18T00:57:14.341Z,62.50
2017-11-18T00:59:41.817Z,62.40
2017-11-18T01:02:09.259Z,62.60
2017-11-18T01:04:37.483Z,62.70
2017-11-18T01:07:04.979Z,62.70
2017-11-18T01:09:32.450Z,62.70
2017-11-18T01:11:59.910Z,62.60
2017-11-18T01:14:27.358Z,62.60
2017-11-18T01:16:54.818Z,62.70
2017-11-18T01:19:22.277Z,63.40
2017-11-18T01:21:49.730Z,62.60
2017-11-18T01:24:17.955Z,62.80
2017-11-18T01:26:46.196Z,63.60
2017-11-18T01:29:13.713Z,62.80
2017-11-18T01:31:41.919Z,62.80
2017-11-18T01:34:09.379Z,62.30
2017-11-18T01:36:36.852Z,62.80
2017-11-18T01:39:04.307Z,62.70
2017-11-18T01:41:31.787Z,62.60
2017-11-18T01:43:59.247Z,62.70
2017-11-18T01:46:26.705Z,62.60
2017-11-18T01:48:54.158Z,62.50
2017-11-18T01:51:22.376Z,62.30
2017-11-18T01:53:49.834Z,62.30
2017-11-18T01:56:17.308Z,62.20
2017-11-18T01:58:44.758Z,62.20
2017-11-18T02:01:12.215Z,62.20
2017-11-18T02:03:39.683Z,62.10
2017-11-18T02:06:07.903Z,61.90
2017-11-18T02:08:35.365Z,61.90
2017-11-18T02:11:02.802Z,61.80
2017-11-18T02:13:31.028Z,61.70
2017-11-18T02:15:58.477Z,61.70
2017-11-18T02:18:25.939Z,61.90
2017-11-18T02:20:53.399Z,62.00
2017-11-18T02:23:20.854Z,61.90
2017-11-18T02:25:49.067Z,62.00
2017-11-18T02:28:17.305Z,62.00
2017-11-18T02:30:45.527Z,62.00
2017-11-18T02:33:13.771Z,62.10
2017-11-18T02:35:41.227Z,62.00
2017-11-18T02:38:08.732Z,62.10
2017-11-18T02:40:36.951Z,62.20
2017-11-18T02:43:04.416Z,62.10
2017-11-18T02:45:31.861Z,62.30
2017-11-18T02:47:59.325Z,62.10
2017-11-18T02:50:26.775Z,62.20
2017-11-18T02:52:54.236Z,62.20
2017-11-18T02:55:21.691Z,62.20
2017-11-18T02:57:49.930Z,62.40
2017-11-18T03:00:18.142Z,62.30
2017-11-18T03:02:45.600Z,62.30
2017-11-18T03:05:13.058Z,62.30
2017-11-18T03:07:40.514Z,62.40
2017-11-18T03:10:07.971Z,62.30
2017-11-18T03:12:35.422Z,62.40
2017-11-18T03:15:02.898Z,62.50
2017-11-18T03:17:30.349Z,62.50
2017-11-18T03:19:57.823Z,62.30
2017-11-18T03:22:25.288Z,62.50
2017-11-18T03:24:52.750Z,62.50
2017-11-18T03:27:20.202Z,62.40
2017-11-18T03:29:48.419Z,62.90
2017-11-18T03:32:15.885Z,62.40
2017-11-18T03:34:43.331Z,62.40
2017-11-18T03:37:10.787Z,62.50
2017-11-18T03:39:38.244Z,62.40
2017-11-18T03:42:05.696Z,62.30
2017-11-18T03:44:33.914Z,62.10
2017-11-18T03:47:01.376Z,62.10
2017-11-18T03:49:28.829Z,62.20
2017-11-18T03:51:56.286Z,62.10
2017-11-18T03:54:23.761Z,62.10
2017-11-18T03:56:51.222Z,61.90
2017-11-18T03:59:20.223Z,61.70
2017-11-18T04:01:47.674Z,61.70
2017-11-18T04:04:15.147Z,61.70
2017-11-18T04:06:43.382Z,61.60
2017-11-18T04:09:10.855Z,61.60
2017-11-18T04:11:39.079Z,61.40
2017-11-18T04:14:06.528Z,61.50
2017-11-18T04:16:34.760Z,61.50
2017-11-18T04:19:02.223Z,61.40
2017-11-18T04:21:29.699Z,61.30
2017-11-18T04:23:57.908Z,61.30
2017-11-18T04:26:25.358Z,61.30
2017-11-18T04:28:52.820Z,61.40
2017-11-18T04:31:20.291Z,61.40
2017-11-18T04:33:47.735Z,61.30
2017-11-18T04:36:15.980Z,61.40
2017-11-18T04:38:43.435Z,61.40
2017-11-18T04:41:11.659Z,61.50
2017-11-18T04:43:39.123Z,61.50
2017-11-18T04:46:06.601Z,61.70
2017-11-18T04:48:34.058Z,61.80
2017-11-18T04:51:02.334Z,61.90
2017-11-18T04:53:29.767Z,61.80
2017-11-18T04:55:58.004Z,62.00
2017-11-18T04:58:25.467Z,62.00
2017-11-18T05:00:52.927Z,61.90
2017-11-18T05:03:20.376Z,62.10
2017-11-18T05:05:48.590Z,62.10
2017-11-18T05:08:16.054Z,62.10
2017-11-18T05:10:44.272Z,62.10
2017-11-18T05:13:12.507Z,62.10
2017-11-18T05:15:39.976Z,62.00
2017-11-18T05:18:07.422Z,62.70
2017-11-18T05:20:34.884Z,62.10
2017-11-18T05:23:02.356Z,62.10
2017-11-18T05:25:29.804Z,62.10
2017-11-18T05:27:57.299Z,62.10
2017-11-18T05:30:25.519Z,62.40
2017-11-18T05:32:52.995Z,62.30
2017-11-18T05:35:20.465Z,62.40
2017-11-18T05:37:47.912Z,62.40
2017-11-18T05:40:15.368Z,62.50
2017-11-18T05:42:43.597Z,62.30
2017-11-18T05:45:11.823Z,62.40
2017-11-18T05:47:39.308Z,62.30
2017-11-18T05:50:07.541Z,62.50
2017-11-18T05:52:35.011Z,62.50
2017-11-18T05:55:02.472Z,62.50
2017-11-18T05:57:29.962Z,62.70
2017-11-18T05:59:57.415Z,62.50
2017-11-18T06:02:25.651Z,62.80
2017-11-18T06:04:53.114Z,62.70
2017-11-18T06:07:20.575Z,62.80
2017-11-18T06:09:48.058Z,62.70
2017-11-18T06:12:16.299Z,62.90
2017-11-18T06:14:43.772Z,62.60
2017-11-18T06:17:11.250Z,62.60
2017-11-18T06:19:38.706Z,62.40
2017-11-18T06:22:06.163Z,63.30
2017-11-18T06:24:34.395Z,62.70
2017-11-18T06:27:01.860Z,62.60
2017-11-18T06:29:29.327Z,62.50
2017-11-18T06:31:57.542Z,62.20
2017-11-18T06:34:25.774Z,62.40
2017-11-18T06:36:53.983Z,62.40
2017-11-18T06:39:22.222Z,62.40
2017-11-18T06:41:49.679Z,62.40
2017-11-18T06:44:17.166Z,62.40
2017-11-18T06:46:44.630Z,62.40
2017-11-18T06:49:12.876Z,62.20
2017-11-18T06:51:40.327Z,62.10
2017-11-18T06:54:07.792Z,62.10
2017-11-18T06:56:35.259Z,62.00
2017-11-18T06:59:02.734Z,62.10
2017-11-18T07:01:30.186Z,61.90
2017-11-18T07:03:57.631Z,61.90
2017-11-18T07:06:25.095Z,62.00
2017-11-18T07:08:52.544Z,61.90
2017-11-18T07:11:20.002Z,62.00
2017-11-18T07:13:47.470Z,61.70
2017-11-18T07:16:15.710Z,61.80
2017-11-18T07:18:43.196Z,61.70
2017-11-18T07:21:10.659Z,61.90
2017-11-18T07:23:38.884Z,61.40
2017-11-18T07:26:06.343Z,61.40
2017-11-18T07:28:33.865Z,61.40
2017-11-18T07:31:02.108Z,61.20
2017-11-18T07:33:30.355Z,61.20
2017-11-18T07:35:57.871Z,61.20
2017-11-18T07:38:26.104Z,61.20
2017-11-18T07:40:54.324Z,61.10
2017-11-18T07:43:22.538Z,61.00
2017-11-18T07:45:50.023Z,60.90
2017-11-18T07:48:17.481Z,60.90
2017-11-18T07:50:45.692Z,60.90
2017-11-18T07:53:13.927Z,61.00
2017-11-18T07:55:42.138Z,60.80
2017-11-18T07:58:09.679Z,60.70
2017-11-18T08:00:37.126Z,60.70
2017-11-18T08:03:04.589Z,60.60
2017-11-18T08:05:32.051Z,60.60
2017-11-18T08:07:59.516Z,61.20
2017-11-18T08:10:26.959Z,60.50
2017-11-18T08:12:54.512Z,60.30
2017-11-18T08:15:21.987Z,60.40
2017-11-18T08:17:49.446Z,60.40
2017-11-18T08:20:16.909Z,60.60
2017-11-18T08:22:45.155Z,60.30
2017-11-18T08:25:12.607Z,61.00
2017-11-18T08:27:40.092Z,60.20
2017-11-18T08:30:08.319Z,59.80
2017-11-18T08:32:35.791Z,59.80
2017-11-18T08:35:03.254Z,59.50
2017-11-18T08:37:30.715Z,59.30
2017-11-18T08:39:58.924Z,58.80
2017-11-18T08:42:27.173Z,58.70
2017-11-18T08:44:54.623Z,58.70
2017-11-18T08:47:22.106Z,58.60
2017-11-18T08:49:49.550Z,59.00
2017-11-18T08:52:17.031Z,59.30
2017-11-18T08:54:45.291Z,59.50
2017-11-18T08:57:12.738Z,59.40
2017-11-18T08:59:40.210Z,59.60
2017-11-18T09:02:07.650Z,59.90
2017-11-18T09:04:35.119Z,60.10
2017-11-18T09:07:02.566Z,60.40
2017-11-18T09:09:30.027Z,60.70
2017-11-18T09:11:57.478Z,61.00
2017-11-18T09:14:24.935Z,61.10
2017-11-18T09:16:52.412Z,60.90
2017-11-18T09:19:19.864Z,60.90
2017-11-18T09:21:48.094Z,60.40
2017-11-18T09:24:15.559Z,60.40
2017-11-18T09:26:43.020Z,60.20
2017-11-18T09:29:10.482Z,60.00
2017-11-18T09:31:37.939Z,59.80
2017-11-18T09:34:05.411Z,59.50
2017-11-18T09:36:32.851Z,59.60
2017-11-18T09:39:00.328Z,59.50
2017-11-18T09:41:27.783Z,59.60
2017-11-18T09:43:55.244Z,58.90
2017-11-18T09:46:22.703Z,58.60
2017-11-18T09:48:50.911Z,57.80
2017-11-18T09:51:19.160Z,57.80
2017-11-18T09:53:46.615Z,57.80
2017-11-18T09:56:14.067Z,57.90
2017-11-18T09:58:41.522Z,58.00
2017-11-18T10:01:08.991Z,58.00
2017-11-18T10:03:37.244Z,58.30
2017-11-18T10:06:04.726Z,58.20
2017-11-18T10:08:32.176Z,58.50
2017-11-18T10:11:00.403Z,59.20
2017-11-18T10:13:27.876Z,59.10
2017-11-18T10:15:55.342Z,59.40
2017-11-18T10:18:22.809Z,59.50
2017-11-18T10:20:50.290Z,59.20
2017-11-18T10:23:17.804Z,59.00
2017-11-18T10:25:46.032Z,59.10
2017-11-18T10:28:13.478Z,59.00
2017-11-18T10:30:40.931Z,59.10
2017-11-18T10:33:11.681Z,59.60
2017-11-18T10:35:39.933Z,59.70
2017-11-18T10:38:07.388Z,59.60
2017-11-18T10:40:34.883Z,59.70
2017-11-18T10:43:03.106Z,60.00
2017-11-18T10:45:30.563Z,60.00
2017-11-18T10:47:58.023Z,60.00
2017-11-18T10:50:25.481Z,60.00
2017-11-18T10:52:52.934Z,59.90
2017-11-18T10:55:20.383Z,59.90
2017-11-18T10:57:47.843Z,60.00
2017-11-18T11:00:15.287Z,60.10
2017-11-18T11:02:42.743Z,60.10
2017-11-18T11:05:10.203Z,60.20
2017-11-18T11:07:37.655Z,60.20
2017-11-18T11:10:05.107Z,60.20
2017-11-18T11:12:32.631Z,60.30
2017-11-18T11:15:00.084Z,60.40
2017-11-18T11:17:27.535Z,60.40
2017-11-18T11:19:54.980Z,60.30
2017-11-18T11:22:22.456Z,60.30
2017-11-18T11:24:49.902Z,60.40
2017-11-18T11:27:17.363Z,60.20
2017-11-18T11:29:44.839Z,60.20
2017-11-18T11:32:13.055Z,60.60
2017-11-18T11:34:40.515Z,60.20
2017-11-18T11:37:08.027Z,60.10
2017-11-18T11:39:35.476Z,59.90
2017-11-18T11:42:02.935Z,59.60
2017-11-18T11:44:30.387Z,59.40
2017-11-18T11:46:57.852Z,59.40
2017-11-18T11:49:25.311Z,59.20
2017-11-18T11:51:52.767Z,59.40
2017-11-18T11:54:20.230Z,59.70
2017-11-18T11:56:47.678Z,59.70
2017-11-18T11:59:15.140Z,59.90
2017-11-18T12:01:42.583Z,59.90
2017-11-18T12:04:10.817Z,60.00
2017-11-18T12:06:38.269Z,60.00
2017-11-18T12:09:05.727Z,60.10
2017-11-18T12:11:33.938Z,60.30
2017-11-18T12:14:01.398Z,60.30
2017-11-18T12:16:28.867Z,60.30
2017-11-18T12:18:56.345Z,60.30
2017-11-18T12:21:24.573Z,60.60
2017-11-18T12:23:52.036Z,60.50
2017-11-18T12:26:19.491Z,60.50
2017-11-18T12:28:46.968Z,60.60
2017-11-18T12:31:14.422Z,60.50
2017-11-18T12:33:41.888Z,60.50
2017-11-18T12:36:10.128Z,60.40
2017-11-18T12:38:38.331Z,60.40
2017-11-18T12:41:05.810Z,60.40
2017-11-18T12:43:34.043Z,60.60
2017-11-18T12:46:02.328Z,60.70
2017-11-18T12:48:29.785Z,60.70
2017-11-18T12:50:57.263Z,60.70
2017-11-18T12:53:24.715Z,60.80
2017-11-18T12:55:52.183Z,60.70
2017-11-18T12:58:19.656Z,60.60
2017-11-18T13:00:47.890Z,59.80
2017-11-18T13:03:15.351Z,59.80
2017-11-18T13:05:42.815Z,59.80
2017-11-18T13:08:10.272Z,59.50
2017-11-18T13:10:37.824Z,59.10
2017-11-18T13:13:06.026Z,58.40
2017-11-18T13:15:33.499Z,58.40
2017-11-18T13:18:00.945Z,58.20
2017-11-18T13:20:30.226Z,58.10
2017-11-18T13:23:05.987Z,58.20
2017-11-18T13:25:33.495Z,58.10
2017-11-18T13:28:00.967Z,58.10
2017-11-18T13:30:28.422Z,58.00
2017-11-18T13:32:55.900Z,57.90
2017-11-18T13:35:24.341Z,57.90
2017-11-18T13:37:52.111Z,58.00
2017-11-18T13:40:19.558Z,57.80
2017-11-18T13:42:47.031Z,57.70
2017-11-18T13:45:14.489Z,57.70
2017-11-18T13:47:44.411Z,57.50
2017-11-18T13:50:11.900Z,57.70
2017-11-18T13:52:39.727Z,58.00
2017-11-18T13:55:10.111Z,57.70
2017-11-18T13:57:38.339Z,57.60
2017-11-18T14:00:07.430Z,57.60
2017-11-18T14:02:35.203Z,57.70
2017-11-18T14:05:02.680Z,57.80
2017-11-18T14:07:30.700Z,58.00
2017-11-18T14:09:58.192Z,58.10
2017-11-18T14:12:25.659Z,58.20
2017-11-18T14:14:53.126Z,58.20
2017-11-18T14:17:20.586Z,58.30
2017-11-18T14:19:48.030Z,58.40
2017-11-18T14:22:15.475Z,58.40
2017-11-18T14:24:43.902Z,58.50
2017-11-18T14:27:13.946Z,58.60
2017-11-18T14:29:42.212Z,58.70
2017-11-18T14:32:09.695Z,58.90
2017-11-18T14:34:37.167Z,59.00
2017-11-18T14:37:04.638Z,59.30
2017-11-18T14:39:32.886Z,59.50
2017-11-18T14:42:00.340Z,59.50
2017-11-18T14:44:27.794Z,59.60
2017-11-18T14:46:55.287Z,59.70
2017-11-18T14:49:23.551Z,60.00
2017-11-18T14:51:51.006Z,60.00
2017-11-18T14:54:18.459Z,60.00
2017-11-18T14:56:45.935Z,60.10
2017-11-18T14:59:13.391Z,60.10
2017-11-18T15:01:41.611Z,60.20
2017-11-18T15:04:09.838Z,60.20
2017-11-18T15:06:37.322Z,60.10
2017-11-18T15:09:04.862Z,60.00
2017-11-18T15:11:32.322Z,60.20
2017-11-18T15:13:59.782Z,60.40
2017-11-18T15:19:45.787Z,60.20
2017-11-18T15:22:15.681Z,60.30
2017-11-18T15:24:48.692Z,60.20
2017-11-18T15:27:21.824Z,60.40
2017-11-18T15:29:55.151Z,60.50
2017-11-18T15:32:38.257Z,60.40
2017-11-18T15:38:33.980Z,60.40
2017-11-18T15:41:02.207Z,60.40
2017-11-18T15:43:31.351Z,60.40
2017-11-18T15:46:01.115Z,60.40
2017-11-18T15:48:34.105Z,60.40
2017-11-18T15:51:07.194Z,60.50
2017-11-18T15:53:41.711Z,60.60
2017-11-18T15:59:10.734Z,60.50
2017-11-18T16:01:43.767Z,60.80
2017-11-18T16:04:18.801Z,60.70
2017-11-18T16:09:47.711Z,60.60
2017-11-18T16:12:15.191Z,60.70
2017-11-18T16:14:42.655Z,61.30
2017-11-18T16:17:10.134Z,60.80
2017-11-18T16:19:37.591Z,60.70
2017-11-18T16:22:05.049Z,60.60
2017-11-18T16:24:32.508Z,60.70
2017-11-18T16:26:59.950Z,60.70
2017-11-18T16:29:27.419Z,60.60
2017-11-18T16:31:54.888Z,60.50
2017-11-18T16:34:22.384Z,60.40
2017-11-18T16:36:50.621Z,60.50
2017-11-18T16:39:18.079Z,60.50
2017-11-18T16:41:45.539Z,60.30
2017-11-18T16:44:12.993Z,60.50
2017-11-18T16:46:40.463Z,60.40
2017-11-18T16:49:08.688Z,60.40
2017-11-18T16:51:36.175Z,60.40
2017-11-18T16:54:04.456Z,60.40
2017-11-18T16:56:31.915Z,60.40
2017-11-18T16:59:00.131Z,60.60
2017-11-18T17:01:28.348Z,60.70
2017-11-18T17:03:55.821Z,60.60
2017-11-18T17:06:24.111Z,60.60
2017-11-18T17:08:51.575Z,60.60
2017-11-18T17:11:19.934Z,60.70
2017-11-18T17:13:47.415Z,60.70
2017-11-18T17:16:14.871Z,60.70
2017-11-18T17:18:42.345Z,60.70
2017-11-18T17:21:10.556Z,60.60
2017-11-18T17:23:38.038Z,60.50
2017-11-18T17:28:56.906Z,60.90
2017-11-18T17:31:24.772Z,60.80
2017-11-18T17:33:52.259Z,60.80
2017-11-18T17:36:19.831Z,60.90
2017-11-18T17:38:48.503Z,60.80
2017-11-18T17:41:16.852Z,60.80
2017-11-18T17:43:44.408Z,60.80
2017-11-18T17:46:11.871Z,60.80
2017-11-18T17:48:39.327Z,60.70
2017-11-18T17:51:07.556Z,60.70
2017-11-18T17:53:35.030Z,60.70
2017-11-18T17:56:02.466Z,60.70
2017-11-18T17:58:30.856Z,60.60
2017-11-18T18:00:58.332Z,60.60
2017-11-18T18:03:25.812Z,60.80
2017-11-18T18:05:53.275Z,60.70
2017-11-18T18:08:20.777Z,60.70
2017-11-18T18:10:49.051Z,60.90
2017-11-18T18:13:16.550Z,60.90
2017-11-18T18:15:44.792Z,61.00
2017-11-18T18:18:13.017Z,60.90
2017-11-18T18:20:41.238Z,60.90
2017-11-18T18:23:09.501Z,60.80
2017-11-18T18:25:37.726Z,60.90
2017-11-18T18:28:05.194Z,60.70
2017-11-18T18:30:32.641Z,61.70
2017-11-18T18:33:00.889Z,60.90
2017-11-18T18:35:28.336Z,60.90
2017-11-18T18:37:56.558Z,60.70
2017-11-18T18:40:24.022Z,60.70
2017-11-18T18:42:52.247Z,60.80
2017-11-18T18:45:21.161Z,60.80
2017-11-18T18:47:49.376Z,60.70
2017-11-18T18:50:16.840Z,60.70
2017-11-18T18:52:44.298Z,60.70
2017-11-18T18:55:12.554Z,60.70
2017-11-18T18:57:40.012Z,60.70
2017-11-18T19:00:07.497Z,60.60
2017-11-18T19:02:34.948Z,60.60
2017-11-18T19:05:02.407Z,60.60
2017-11-18T19:07:29.851Z,60.50
2017-11-18T19:09:57.308Z,60.50
2017-11-18T19:12:24.752Z,60.60
2017-11-18T19:14:52.212Z,60.70
2017-11-18T19:17:19.676Z,60.60
2017-11-18T19:19:47.140Z,60.60
2017-11-18T19:22:14.588Z,60.70
2017-11-18T19:24:42.827Z,60.70
2017-11-18T19:27:10.303Z,60.70
2017-11-18T19:29:37.755Z,60.70
2017-11-18T19:32:05.231Z,60.90
2017-11-18T19:34:32.702Z,60.70
2017-11-18T19:37:00.163Z,60.90
2017-11-18T19:39:28.448Z,61.00
2017-11-18T19:41:55.923Z,61.00
2017-11-18T19:44:24.149Z,61.10
2017-11-18T19:46:51.672Z,60.90
2017-11-18T19:49:19.141Z,61.10
2017-11-18T19:51:46.620Z,61.10
2017-11-18T19:54:14.849Z,61.10
2017-11-18T19:56:43.071Z,61.10
2017-11-18T19:59:10.544Z,61.10
2017-11-18T20:01:38.007Z,61.10
2017-11-18T20:04:05.466Z,60.90
2017-11-18T20:06:32.948Z,61.00
2017-11-18T20:09:01.183Z,60.90
2017-11-18T20:11:28.662Z,60.80
2017-11-18T20:13:56.103Z,60.80
2017-11-18T20:16:24.342Z,60.80
2017-11-18T20:18:51.831Z,60.80
2017-11-18T20:21:19.303Z,60.70
2017-11-18T20:23:46.751Z,60.70
2017-11-18T20:26:14.216Z,60.70
2017-11-18T20:28:41.663Z,60.60
2017-11-18T20:31:09.138Z,60.40
2017-11-18T20:33:36.626Z,60.40
2017-11-18T20:36:04.844Z,60.30
2017-11-18T20:38:32.323Z,60.40
2017-11-18T20:40:59.781Z,60.30
2017-11-18T20:43:28.019Z,60.40
2017-11-18T20:45:55.492Z,60.40
2017-11-18T20:48:23.731Z,60.30
2017-11-18T20:50:51.186Z,60.20
2017-11-18T20:53:18.657Z,60.40
2017-11-18T20:55:46.110Z,60.40
2017-11-18T20:58:13.612Z,60.20
2017-11-18T21:00:41.071Z,60.20
2017-11-18T21:03:08.565Z,60.10
2017-11-18T21:05:36.799Z,60.20
2017-11-18T21:08:04.272Z,60.20
2017-11-18T21:10:32.507Z,60.20
2017-11-18T21:12:59.979Z,60.10
2017-11-18T21:15:28.190Z,60.30
2017-11-18T21:17:55.667Z,60.20
2017-11-18T21:20:23.892Z,60.20
2017-11-18T21:22:51.348Z,60.10
2017-11-18T21:25:18.810Z,60.20
2017-11-18T21:27:46.258Z,60.30
2017-11-18T21:30:13.719Z,60.30
2017-11-18T21:32:41.963Z,60.30
2017-11-18T21:35:09.446Z,60.30
2017-11-18T21:37:36.904Z,60.30
2017-11-18T21:40:04.371Z,60.40
2017-11-18T21:42:31.831Z,60.40
2017-11-18T21:44:59.279Z,60.40
2017-11-18T21:47:26.739Z,60.30
2017-11-18T21:49:54.980Z,60.10
2017-11-18T21:52:23.199Z,60.20
2017-11-18T21:54:50.661Z,60.20
2017-11-18T21:57:18.912Z,60.20
2017-11-18T21:59:46.372Z,60.20
2017-11-18T22:02:13.843Z,60.00
2017-11-18T22:04:41.300Z,60.10
2017-11-18T22:07:09.535Z,60.10
2017-11-18T22:09:37.007Z,60.10
2017-11-18T22:12:04.487Z,60.10
2017-11-18T22:14:31.952Z,59.90
2017-11-18T22:16:59.415Z,59.90
2017-11-18T22:19:27.638Z,60.00
2017-11-18T22:21:55.099Z,59.90
2017-11-18T22:24:22.608Z,59.80
2017-11-18T22:26:50.832Z,59.80
2017-11-18T22:29:18.313Z,59.80
2017-11-18T22:31:45.771Z,60.00
2017-11-18T22:34:13.240Z,60.00
2017-11-18T22:36:40.696Z,59.90
2017-11-18T22:39:08.938Z,59.90
2017-11-18T22:41:36.393Z,59.90
2017-11-18T22:44:03.902Z,59.90
2017-11-18T22:46:31.337Z,59.90
2017-11-18T22:48:58.824Z,59.90
2017-11-18T22:51:26.301Z,59.90
2017-11-18T22:53:53.760Z,60.00
2017-11-18T22:56:22.031Z,59.90
2017-11-18T22:58:50.258Z,60.00
2017-11-18T23:01:17.711Z,59.80
2017-11-18T23:03:45.168Z,59.90
2017-11-18T23:06:12.633Z,59.90
2017-11-18T23:08:40.092Z,59.90
2017-11-18T23:11:07.594Z,60.70
2017-11-18T23:13:35.048Z,60.00
2017-11-18T23:16:02.508Z,60.00
2017-11-18T23:18:29.961Z,60.00
2017-11-18T23:20:57.423Z,60.00
2017-11-18T23:23:24.883Z,60.00
2017-11-18T23:25:52.355Z,60.10
2017-11-18T23:28:20.581Z,60.20
2017-11-18T23:30:48.039Z,60.20
2017-11-18T23:33:15.498Z,60.10
2017-11-18T23:35:43.038Z,59.90
2017-11-18T23:38:10.520Z,60.00
2017-11-18T23:40:38.029Z,60.00
2017-11-18T23:43:05.540Z,60.00
2017-11-18T23:45:32.987Z,59.90
2017-11-18T23:48:00.448Z,60.10
2017-11-18T23:50:27.898Z,60.20
2017-11-18T23:52:55.354Z,59.90
2017-11-18T23:55:22.810Z,60.00
2017-11-18T23:57:51.038Z,60.00
